createdAt,value
2023-04-07T00:02:18.803Z,55.31
2023-04-07T00:07:21.692Z,55.45
2023-04-07T00:12:25.582Z,55.42
2023-04-07T00:17:27.875Z,55.29
2023-04-07T00:22:30.789Z,55.38
2023-04-07T00:27:33.155Z,55.12
2023-04-07T00:32:36.525Z,54.79
2023-04-07T00:37:39.133Z,55.02
2023-04-07T00:42:42.130Z,55.26
2023-04-07T00:47:45.755Z,55.33
2023-04-07T00:52:48.985Z,54.67
2023-04-07T00:57:54.120Z,55.41
2023-04-07T01:03:05.542Z,55.35
2023-04-07T01:08:21.012Z,54.97
2023-04-07T01:13:31.720Z,55.45
2023-04-07T01:18:47.951Z,55.11
2023-04-07T01:24:02.772Z,56.05
2023-04-07T01:29:31.580Z,55.17
2023-04-07T01:34:35.974Z,55.53
2023-04-07T01:39:41.427Z,55.91
2023-04-07T01:44:46.379Z,56.00
2023-04-07T01:49:50.132Z,56.30
2023-04-07T01:54:55.562Z,56.28
2023-04-07T01:59:58.603Z,56.84
2023-04-07T02:05:10.234Z,57.04
2023-04-07T02:10:17.403Z,56.88
2023-04-07T02:15:20.601Z,57.11
2023-04-07T02:20:25.150Z,57.52
2023-04-07T02:25:29.966Z,56.97
2023-04-07T02:30:34.203Z,57.68
2023-04-07T02:35:36.635Z,57.01
2023-04-07T02:40:39.747Z,57.38
2023-04-07T02:45:42.205Z,56.50
2023-04-07T02:50:44.624Z,57.02
2023-04-07T02:55:46.954Z,56.39
2023-04-07T03:00:50.919Z,56.81
2023-04-07T03:05:58.287Z,56.75
2023-04-07T03:11:00.997Z,56.33
2023-04-07T03:16:05.793Z,56.33
2023-04-07T03:21:17.710Z,57.01
2023-04-07T03:26:22.009Z,56.65
2023-04-07T03:31:25.675Z,55.86
2023-04-07T03:36:30.188Z,55.79
2023-04-07T03:41:36.974Z,55.25
2023-04-07T03:46:40.648Z,54.85
2023-04-07T03:51:44.377Z,54.05
2023-04-07T03:56:51.671Z,54.69
2023-04-07T04:01:59.052Z,54.88
2023-04-07T04:07:02.330Z,54.67
2023-04-07T04:12:21.813Z,53.90
2023-04-07T04:17:38.985Z,53.86
2023-04-07T04:22:43.758Z,53.71
2023-04-07T04:27:47.762Z,52.27
2023-04-07T04:32:55.822Z,48.15
2023-04-07T04:38:07.801Z,46.70
2023-04-07T04:43:12.379Z,44.41
2023-04-07T04:48:18.183Z,43.37
2023-04-07T04:53:23.421Z,41.76
2023-04-07T04:58:31.594Z,41.08
2023-04-07T05:03:35.687Z,39.47
2023-04-07T05:08:46.474Z,38.93
2023-04-07T05:13:51.554Z,38.39
2023-04-07T05:18:55.107Z,36.41
2023-04-07T05:24:01.070Z,36.37
2023-04-07T05:29:10.188Z,35.19
2023-04-07T05:34:14.265Z,35.06
2023-04-07T05:39:24.244Z,34.34
2023-04-07T05:44:30.900Z,34.22
2023-04-07T05:49:36.064Z,33.43
2023-04-07T05:54:42.462Z,32.81
2023-04-07T05:59:48.256Z,33.00
2023-04-07T06:04:52.478Z,31.71
2023-04-07T06:10:17.337Z,31.82
2023-04-07T06:15:21.292Z,31.45
2023-04-07T06:20:26.284Z,32.19
2023-04-07T06:25:28.720Z,32.82
2023-04-07T06:30:32.133Z,32.59
2023-04-07T06:35:36.325Z,31.71
2023-04-07T06:40:39.236Z,31.32
2023-04-07T06:45:47.062Z,31.64
2023-04-07T06:50:53.176Z,32.07
2023-04-07T06:56:11.651Z,31.33
2023-04-07T07:01:17.304Z,31.15
2023-04-07T07:06:21.720Z,30.71
2023-04-07T07:11:26.526Z,31.02
2023-04-07T07:16:29.771Z,31.65
2023-04-07T07:21:32.734Z,31.66
2023-04-07T07:26:35.041Z,31.77
2023-04-07T07:31:38.028Z,32.42
2023-04-07T07:36:41.285Z,33.30
2023-04-07T07:41:45.824Z,33.89
2023-04-07T07:46:51.348Z,33.83
2023-04-07T07:51:54.284Z,35.01
2023-04-07T07:56:59.091Z,35.41
2023-04-07T08:02:01.954Z,35.59
2023-04-07T08:07:05.028Z,36.28
2023-04-07T08:12:07.953Z,36.30
2023-04-07T08:17:13.352Z,36.69
2023-04-07T08:22:16.275Z,36.67
2023-04-07T08:27:19.174Z,37.08
2023-04-07T08:32:27.055Z,37.10
2023-04-07T08:37:30.589Z,36.93
2023-04-07T08:42:35.003Z,37.33
2023-04-07T08:47:41.771Z,37.51
2023-04-07T08:53:01.020Z,37.26
2023-04-07T08:58:06.155Z,37.74
2023-04-07T09:03:11.528Z,37.80
2023-04-07T09:08:16.910Z,37.53
2023-04-07T09:13:19.803Z,37.23
2023-04-07T09:18:23.498Z,37.45
2023-04-07T09:23:33.893Z,37.82
2023-04-07T09:28:42.382Z,37.63
2023-04-07T09:33:45.806Z,37.18
2023-04-07T09:38:49.395Z,37.46
2023-04-07T09:43:58.918Z,37.49
2023-04-07T09:49:08.268Z,37.42
2023-04-07T09:54:12.609Z,37.35
2023-04-07T09:59:16.824Z,37.18
2023-04-07T10:04:22.090Z,37.06
2023-04-07T10:09:29.020Z,37.91
2023-04-07T10:14:33.738Z,37.32
2023-04-07T10:19:36.740Z,37.66
2023-04-07T10:24:59.709Z,36.92
2023-04-07T10:30:28.777Z,37.21
2023-04-07T10:36:08.223Z,37.18
2023-04-07T10:41:34.025Z,37.34
2023-04-07T10:46:46.234Z,36.37
2023-04-07T10:52:14.212Z,36.94
2023-04-07T10:57:18.339Z,36.46
2023-04-07T11:02:24.445Z,35.91
2023-04-07T11:07:50.731Z,36.35
2023-04-07T11:13:04.100Z,35.75
2023-04-07T11:18:15.777Z,35.24
2023-04-07T11:23:20.482Z,35.91
2023-04-07T11:28:24.108Z,35.17
2023-04-07T11:33:31.461Z,35.03
2023-04-07T11:38:39.025Z,36.53
2023-04-07T11:43:42.775Z,35.87
2023-04-07T11:48:47.676Z,37.00
2023-04-07T11:53:57.385Z,39.01
2023-04-07T11:59:00.276Z,38.37
2023-04-07T12:04:05.312Z,37.25
2023-04-07T12:09:10.195Z,37.11
2023-04-07T12:14:16.316Z,36.88
2023-04-07T12:19:19.349Z,36.93
2023-04-07T12:24:23.212Z,36.36
2023-04-07T12:29:26.012Z,35.95
2023-04-07T12:34:29.172Z,37.01
2023-04-07T12:39:34.324Z,36.68
2023-04-07T12:44:41.471Z,36.52
2023-04-07T12:49:46.372Z,36.91
2023-04-07T12:54:51.100Z,35.42
2023-04-07T12:59:54.509Z,36.60
2023-04-07T13:04:57.410Z,36.32
2023-04-07T13:10:00.211Z,36.43
2023-04-07T13:15:02.796Z,35.41
2023-04-07T13:20:07.885Z,35.08
2023-04-07T13:25:10.943Z,34.77
2023-04-07T13:30:15.371Z,34.65
2023-04-07T13:35:19.532Z,35.30
2023-04-07T13:40:21.987Z,35.58
2023-04-07T13:45:25.693Z,35.32
2023-04-07T13:50:28.752Z,34.50
2023-04-07T13:55:31.078Z,34.32
2023-04-07T14:00:35.999Z,34.46
2023-04-07T14:05:38.899Z,34.16
2023-04-07T14:10:42.339Z,34.55
2023-04-07T14:15:46.027Z,34.37
2023-04-07T14:20:48.904Z,33.24
2023-04-07T14:25:51.187Z,33.46
2023-04-07T14:30:55.258Z,33.66
2023-04-07T14:35:58.140Z,34.15
2023-04-07T14:46:08.689Z,34.46
2023-04-07T14:51:13.052Z,35.39
2023-04-07T14:56:16.688Z,36.02
2023-04-07T15:01:19.112Z,36.27
2023-04-07T15:06:21.486Z,37.03
2023-04-07T15:11:24.199Z,37.53
2023-04-07T15:16:27.895Z,37.46
2023-04-07T15:21:31.186Z,37.52
2023-04-07T15:26:33.619Z,38.25
2023-04-07T15:31:36.155Z,38.08
2023-04-07T15:36:39.200Z,38.66
2023-04-07T15:41:41.827Z,39.02
2023-04-07T15:46:44.840Z,39.09
2023-04-07T15:51:47.257Z,39.60
2023-04-07T15:56:49.608Z,40.44
2023-04-07T16:01:53.668Z,40.76
2023-04-07T16:06:56.217Z,41.28
2023-04-07T16:11:58.496Z,41.58
2023-04-07T16:17:01.913Z,41.79
2023-04-07T16:22:05.066Z,42.35
2023-04-07T16:27:07.369Z,42.71
2023-04-07T16:32:09.900Z,42.63
2023-04-07T16:37:12.968Z,43.62
2023-04-07T16:42:15.619Z,43.41
2023-04-07T16:47:17.868Z,44.31
2023-04-07T16:52:21.154Z,43.90
2023-04-07T16:57:23.473Z,44.33
2023-04-07T17:02:27.766Z,44.43
2023-04-07T17:07:30.444Z,44.95
2023-04-07T17:12:32.748Z,44.88
2023-04-07T17:17:35.934Z,44.60
2023-04-07T17:22:38.263Z,44.03
2023-04-07T17:27:40.971Z,44.53
2023-04-07T17:32:43.666Z,44.17
2023-04-07T17:37:46.351Z,43.78
2023-04-07T17:42:48.854Z,44.09
2023-04-07T17:47:51.934Z,43.67
2023-04-07T17:52:54.413Z,43.96
2023-04-07T17:58:01.245Z,44.08
2023-04-07T18:03:04.316Z,44.11
2023-04-07T18:08:07.159Z,44.19
2023-04-07T18:13:15.300Z,45.03
2023-04-07T18:18:24.464Z,44.69
2023-04-07T18:23:27.474Z,44.91
2023-04-07T18:28:30.677Z,44.51
2023-04-07T18:33:34.399Z,44.67
2023-04-07T18:38:42.665Z,44.68
2023-04-07T18:43:47.722Z,44.70
2023-04-07T18:48:50.388Z,44.16
2023-04-07T18:53:52.736Z,43.94
2023-04-07T18:58:55.156Z,44.05
2023-04-07T19:03:57.798Z,43.65
2023-04-07T19:09:00.231Z,43.41
2023-04-07T19:14:02.657Z,42.90
2023-04-07T19:19:05.425Z,43.36
2023-04-07T19:24:07.972Z,42.11
2023-04-07T19:29:12.686Z,41.88
2023-04-07T19:34:14.928Z,41.70
2023-04-07T19:39:17.386Z,41.76
2023-04-07T19:44:19.899Z,40.77
2023-04-07T19:49:25.153Z,40.73
2023-04-07T19:54:28.271Z,40.84
2023-04-07T19:59:30.943Z,40.99
2023-04-07T20:04:33.628Z,40.35
2023-04-07T20:09:37.268Z,40.47
2023-04-07T20:14:39.675Z,40.51
2023-04-07T20:19:42.095Z,40.52
2023-04-07T20:24:45.606Z,40.63
2023-04-07T20:29:47.945Z,39.99
2023-04-07T20:34:52.428Z,40.57
2023-04-07T20:39:55.762Z,40.45
2023-04-07T20:45:03.980Z,41.20
2023-04-07T20:50:07.648Z,40.74
2023-04-07T20:55:12.011Z,41.65
2023-04-07T21:00:15.707Z,42.54
2023-04-07T21:05:20.780Z,42.03
2023-04-07T21:10:23.142Z,42.65
2023-04-07T21:15:26.200Z,42.79
2023-04-07T21:20:28.495Z,43.39
2023-04-07T21:25:31.437Z,43.52
2023-04-07T21:30:34.438Z,43.58
2023-04-07T21:35:38.233Z,44.18
2023-04-07T21:40:40.586Z,44.44
2023-04-07T21:45:44.182Z,45.57
2023-04-07T21:50:46.658Z,45.69
2023-04-07T21:55:49.665Z,45.56
2023-04-07T22:00:53.760Z,46.03
2023-04-07T22:06:00.951Z,45.76
2023-04-07T22:11:03.362Z,46.16
2023-04-07T22:16:07.120Z,47.15
2023-04-07T22:21:09.615Z,47.71
2023-04-07T22:26:12.069Z,47.26
2023-04-07T22:31:14.503Z,47.70
2023-04-07T22:36:16.997Z,48.37
2023-04-07T22:41:19.662Z,49.32
2023-04-07T22:46:21.917Z,49.86
2023-04-07T22:51:24.504Z,50.30
2023-04-07T22:56:27.397Z,50.57
2023-04-07T23:01:29.756Z,51.06
2023-04-07T23:06:32.311Z,50.99
2023-04-07T23:11:34.827Z,50.99
2023-04-07T23:16:37.358Z,51.73
2023-04-07T23:21:39.971Z,51.80
2023-04-07T23:26:42.286Z,52.29
2023-04-07T23:31:44.667Z,52.76
2023-04-07T23:36:47.077Z,54.03
2023-04-07T23:41:49.544Z,54.02
2023-04-07T23:46:51.857Z,53.77
2023-04-07T23:51:54.249Z,54.08
2023-04-07T23:56:57.295Z,54.26
